Time;durP1;ratioP1;P1;durP2;ratioP2;P2;SDS_P1;SDS_P2;PMS_P1;PMS_P2;Temp;Humidity;BMP_temperature;BMP_pressure;BME280_temperature;BME280_humidity;BME280_pressure;Samples;Min_cycle;Max_cycle;Signal;HPM_P1;HPM_P2
2023/04/12 00:02:24;;;;;;;6.63;3.20;;;;;;;4.95;92.41;100978.34;6184459;28;21114;-75
2023/04/12 00:05:45;;;;;;;5.70;3.00;;;;;;;4.85;93.45;100984.47;6433410;23;20558;-76
2023/04/12 00:09:07;;;;;;;4.57;2.80;;;;;;;4.91;93.33;100974.31;6160100;28;21029;-75
2023/04/12 00:12:30;;;;;;;3.40;3.10;;;;;;;5.04;92.52;100969.72;6165371;28;20552;-76
2023/04/12 00:15:51;;;;;;;3.47;3.17;;;;;;;4.78;93.34;100971.91;6149183;28;20233;-75
2023/04/12 00:19:12;;;;;;;3.80;2.90;;;;;;;4.84;93.25;100964.50;6155175;28;20235;-75
2023/04/12 00:22:32;;;;;;;3.87;3.10;;;;;;;4.72;93.35;100956.75;6172858;28;20234;-75
2023/04/12 00:25:53;;;;;;;2.80;2.53;;;;;;;4.84;92.55;100954.88;6152228;28;20229;-75
2023/04/12 00:29:15;;;;;;;4.27;2.30;;;;;;;4.78;92.75;100950.16;6160208;28;20254;-76
2023/04/12 00:32:36;;;;;;;2.87;2.20;;;;;;;4.61;93.54;100942.88;6151690;28;20266;-75
2023/04/12 00:35:57;;;;;;;2.50;2.30;;;;;;;4.58;93.35;100941.34;6158923;28;20714;-76
2023/04/12 00:39:18;;;;;;;5.00;2.20;;;;;;;4.51;93.45;100937.63;6163130;28;20234;-76
2023/04/12 00:42:39;;;;;;;4.17;3.23;;;;;;;4.70;92.79;100937.72;6155036;28;20254;-75
2023/04/12 00:46:02;;;;;;;4.40;2.87;;;;;;;4.77;92.44;100930.19;6142189;28;20242;-75
2023/04/12 00:49:23;;;;;;;3.73;2.67;;;;;;;4.75;91.98;100930.31;6148809;28;20317;-77
2023/04/12 00:52:44;;;;;;;2.63;2.30;;;;;;;4.69;92.11;100924.78;6150621;28;20240;-75
2023/04/12 00:56:10;;;;;;;3.33;2.07;;;;;;;4.62;92.20;100924.47;6153896;28;20225;-75
2023/04/12 00:59:31;;;;;;;3.23;2.53;;;;;;;4.68;91.42;100913.50;6162662;28;20356;-76
2023/04/12 01:02:53;;;;;;;2.40;2.20;;;;;;;4.73;91.46;100906.09;6140409;28;20522;-75
2023/04/12 01:06:28;;;;;;;2.57;2.37;;;;;;;4.65;90.80;100907.69;6154178;28;20448;-75
2023/04/12 01:09:58;;;;;;;3.73;2.40;;;;;;;4.63;91.18;100899.16;6146153;28;20246;-75
2023/04/12 01:13:28;;;;;;;2.63;1.87;;;;;;;4.55;91.51;100889.31;6155931;28;20238;-76
2023/04/12 01:16:53;;;;;;;5.63;3.13;;;;;;;4.66;91.00;100884.03;6159154;28;20318;-76
2023/04/12 01:20:24;;;;;;;2.23;1.97;;;;;;;4.71;90.27;100875.81;6147272;28;20257;-75
2023/04/12 01:23:58;;;;;;;2.70;2.50;;;;;;;4.78;90.97;100864.69;6168058;28;20266;-74
2023/04/12 01:27:34;;;;;;;4.50;1.80;;;;;;;4.50;91.05;100869.78;6146494;28;20230;-76
2023/04/12 01:30:56;;;;;;;3.70;3.23;;;;;;;4.36;91.67;100869.13;6151147;28;20226;-74
2023/04/12 01:34:18;;;;;;;2.67;2.47;;;;;;;4.34;91.61;100863.19;6155831;28;20234;-74
2023/04/12 01:37:41;;;;;;;2.03;1.93;;;;;;;4.59;91.06;100861.97;6137015;28;20531;-76
2023/04/12 01:41:03;;;;;;;6.60;2.50;;;;;;;4.53;91.01;100857.25;6149869;28;20867;-75
2023/04/12 01:44:25;;;;;;;1.87;1.77;;;;;;;4.47;91.21;100855.19;6157854;28;20317;-76
2023/04/12 01:47:46;;;;;;;4.77;2.40;;;;;;;4.43;91.25;100854.59;6165314;28;20609;-74
2023/04/12 01:51:14;;;;;;;4.87;2.50;;;;;;;4.56;91.08;100848.34;6153529;28;20318;-75
2023/04/12 01:54:38;;;;;;;3.33;2.60;;;;;;;4.61;90.48;100835.72;6143836;28;20229;-74
2023/04/12 01:58:02;;;;;;;2.47;2.30;;;;;;;4.35;90.98;100830.91;6174114;28;20514;-74
2023/04/12 02:01:27;;;;;;;3.57;2.13;;;;;;;4.50;90.30;100826.19;6146420;28;20234;-75
2023/04/12 02:04:49;;;;;;;5.07;2.50;;;;;;;4.47;89.91;100816.81;6145406;28;20246;-75
2023/04/12 02:08:09;;;;;;;5.83;2.60;;;;;;;4.48;89.96;100815.03;6159577;28;20321;-75
2023/04/12 02:11:30;;;;;;;3.00;2.43;;;;;;;4.63;89.51;100807.66;6150035;28;20864;-75
2023/04/12 02:14:51;;;;;;;5.57;2.43;;;;;;;4.51;89.49;100803.50;6151971;28;20226;-74
2023/04/12 02:18:16;;;;;;;4.30;2.23;;;;;;;4.51;89.21;100806.94;6131813;28;20227;-75
2023/04/12 02:21:41;;;;;;;1.83;1.50;;;;;;;4.59;89.52;100801.03;6175229;28;20226;-75
2023/04/12 02:25:03;;;;;;;1.90;1.63;;;;;;;4.74;88.93;100795.31;6143687;28;20230;-75
2023/04/12 02:28:24;;;;;;;2.60;2.20;;;;;;;4.58;89.30;100786.31;6175013;28;20583;-76
2023/04/12 02:31:45;;;;;;;2.30;1.87;;;;;;;4.70;88.40;100783.47;6156355;28;20598;-76
2023/04/12 02:35:08;;;;;;;2.80;1.70;;;;;;;4.67;88.33;100777.69;6145211;28;20243;-75
2023/04/12 02:38:29;;;;;;;2.47;2.10;;;;;;;4.63;88.89;100766.66;6138813;28;20234;-74
2023/04/12 02:41:51;;;;;;;1.87;1.77;;;;;;;4.66;88.18;100755.94;6156525;28;20238;-75
2023/04/12 02:45:11;;;;;;;1.60;1.50;;;;;;;4.43;88.62;100750.06;6147787;28;20238;-74
2023/04/12 02:48:34;;;;;;;2.43;2.33;;;;;;;4.54;88.70;100740.47;6150386;28;20226;-75
2023/04/12 02:51:57;;;;;;;3.43;1.77;;;;;;;4.54;88.53;100728.22;6140036;28;20557;-76
2023/04/12 02:55:25;;;;;;;2.10;1.73;;;;;;;4.47;88.23;100717.50;6152025;28;20230;-76
2023/04/12 02:58:47;;;;;;;8.13;2.30;;;;;;;4.60;88.30;100711.19;6141652;28;20591;-76
2023/04/12 03:02:15;;;;;;;2.80;1.80;;;;;;;4.63;87.81;100706.53;6161109;28;20398;-75
2023/04/12 03:05:36;;;;;;;3.07;2.77;;;;;;;4.74;86.98;100692.53;6150404;28;20226;-76
2023/04/12 03:08:59;;;;;;;1.70;1.60;;;;;;;4.70;87.03;100684.13;6149091;28;20230;-76
2023/04/12 03:12:20;;;;;;;1.93;1.80;;;;;;;4.80;86.53;100673.69;6150369;28;20242;-76
2023/04/12 03:16:24;;;;;;;2.37;2.23;;;;;;;4.60;87.05;100677.22;6142474;28;20570;-75
2023/04/12 03:19:52;;;;;;;4.33;1.60;;;;;;;4.66;87.19;100671.47;6149818;28;20238;-75
2023/04/12 03:23:15;;;;;;;1.97;1.73;;;;;;;4.61;87.17;100657.97;6162084;28;20249;-75
2023/04/12 03:26:42;;;;;;;1.80;1.70;;;;;;;4.70;87.35;100644.09;6167238;28;20635;-75
2023/04/12 03:30:12;;;;;;;12.70;2.27;;;;;;;4.84;86.66;100638.44;6156044;28;20628;-75
2023/04/12 03:33:34;;;;;;;3.80;1.87;;;;;;;4.89;86.01;100631.03;6173178;28;20238;-75
2023/04/12 03:36:58;;;;;;;2.10;1.93;;;;;;;4.93;85.96;100624.56;6143471;28;20608;-75
2023/04/12 03:40:31;;;;;;;1.97;1.77;;;;;;;5.01;85.26;100621.25;6145925;28;20332;-75
2023/04/12 03:43:54;;;;;;;4.63;2.97;;;;;;;5.00;85.36;100616.97;6150640;28;20238;-76
2023/04/12 03:47:14;;;;;;;1.60;1.50;;;;;;;4.88;85.62;100616.31;6148793;28;20459;-74
2023/04/12 03:50:42;;;;;;;5.53;1.87;;;;;;;4.90;85.92;100610.94;6154456;28;20622;-75
2023/04/12 03:54:04;;;;;;;1.33;1.30;;;;;;;4.90;85.16;100601.31;6131971;28;20229;-75
2023/04/12 03:57:41;;;;;;;1.90;1.63;;;;;;;4.95;85.21;100591.25;6152279;28;20219;-75
2023/04/12 04:01:04;;;;;;;2.07;1.50;;;;;;;5.02;84.79;100589.72;6154476;28;20237;-75
2023/04/12 04:04:26;;;;;;;3.43;1.80;;;;;;;5.02;84.43;100571.41;6145892;28;20317;-76
2023/04/12 04:07:51;;;;;;;0.90;0.90;;;;;;;5.09;84.02;100571.69;6155244;28;20233;-76
2023/04/12 04:11:12;;;;;;;1.47;1.37;;;;;;;5.09;84.16;100556.00;6159446;28;20242;-76
2023/04/12 04:14:36;;;;;;;5.67;2.43;;;;;;;5.02;84.42;100552.28;6150977;28;20219;-76
2023/04/12 04:18:00;;;;;;;2.57;2.37;;;;;;;5.07;83.90;100534.38;6149432;28;20230;-75
2023/04/12 04:21:22;;;;;;;1.37;1.27;;;;;;;5.07;83.84;100535.19;6153572;28;20419;-76
2023/04/12 04:24:49;;;;;;;2.60;1.57;;;;;;;5.05;83.74;100529.28;6152770;28;20235;-75
2023/04/12 04:28:10;;;;;;;1.53;1.43;;;;;;;5.14;83.61;100525.84;6160103;28;20318;-75
2023/04/12 04:31:35;;;;;;;4.50;2.27;;;;;;;5.05;82.99;100529.28;6137877;28;20238;-76
2023/04/12 04:34:59;;;;;;;2.23;2.13;;;;;;;5.14;83.21;100511.94;6151211;28;20321;-76
2023/04/12 04:38:25;;;;;;;1.50;1.40;;;;;;;5.11;83.01;100507.81;6153795;28;20513;-76
2023/04/12 04:41:53;;;;;;;2.07;1.90;;;;;;;5.24;82.29;100494.41;6155446;28;20266;-76
2023/04/12 04:45:25;;;;;;;1.57;1.47;;;;;;;5.26;81.82;100502.94;6137414;28;20229;-75
2023/04/12 04:48:47;;;;;;;1.30;1.23;;;;;;;5.26;81.34;100484.63;6161999;28;20572;-75
2023/04/12 04:52:09;;;;;;;2.33;1.40;;;;;;;5.35;80.97;100488.19;6158367;28;20428;-75
2023/04/12 04:55:30;;;;;;;2.93;1.23;;;;;;;5.29;80.95;100473.03;6151314;28;20226;-76
2023/04/12 04:58:51;;;;;;;1.83;1.67;;;;;;;5.20;81.32;100472.09;6156050;28;20614;-76
2023/04/12 05:02:15;;;;;;;4.17;1.23;;;;;;;5.21;81.00;100472.91;6161468;28;20501;-75
2023/04/12 05:05:36;;;;;;;3.10;1.70;;;;;;;5.19;81.40;100459.19;6148748;28;20222;-75
2023/04/12 05:09:04;;;;;;;1.47;1.37;;;;;;;5.26;80.50;100465.47;6153510;28;20258;-73
2023/04/12 05:12:30;;;;;;;1.33;1.23;;;;;;;5.31;80.22;100461.47;6162315;28;20592;-74
2023/04/12 05:15:51;;;;;;;1.13;1.13;;;;;;;5.26;80.13;100461.06;6153806;28;20796;-75
2023/04/12 05:19:12;;;;;;;1.73;1.60;;;;;;;5.25;80.17;100464.66;6157897;28;20247;-74
2023/04/12 05:22:35;;;;;;;1.57;1.47;;;;;;;5.18;80.36;100460.97;6149857;28;20227;-74
2023/04/12 05:25:57;;;;;;;2.50;2.10;;;;;;;5.26;80.17;100455.00;6141315;28;20234;-74
2023/04/12 05:29:19;;;;;;;2.30;1.00;;;;;;;5.28;79.99;100456.50;6155203;28;21287;-74
2023/04/12 05:32:40;;;;;;;3.47;1.97;;;;;;;5.36;79.27;100450.56;6144632;28;20230;-74
2023/04/12 05:36:01;;;;;;;4.73;1.40;;;;;;;5.32;79.50;100442.19;6148800;28;20312;-75
2023/04/12 05:39:23;;;;;;;4.40;1.70;;;;;;;5.48;79.13;100445.00;6145208;28;20231;-74
2023/04/12 05:42:47;;;;;;;1.40;1.30;;;;;;;5.52;79.00;100435.06;6136257;28;20238;-74
2023/04/12 05:46:08;;;;;;;7.00;1.97;;;;;;;5.56;78.56;100431.19;6156416;28;20328;-74
2023/04/12 05:49:30;;;;;;;2.97;1.30;;;;;;;5.70;78.34;100428.06;6147139;28;20694;-74
2023/04/12 05:52:51;;;;;;;3.37;1.67;;;;;;;5.69;77.64;100428.19;6148418;28;20230;-74
2023/04/12 05:56:14;;;;;;;2.07;1.97;;;;;;;5.69;77.03;100425.59;6147600;28;20246;-74
2023/04/12 05:59:39;;;;;;;3.97;1.37;;;;;;;5.88;76.42;100419.41;6158703;28;20246;-75
2023/04/12 06:03:00;;;;;;;1.83;1.73;;;;;;;5.95;76.28;100413.44;6154932;28;20250;-74
2023/04/12 06:06:21;;;;;;;3.07;1.97;;;;;;;6.15;75.45;100393.16;6153012;28;20230;-74
2023/04/12 06:09:42;;;;;;;1.67;1.57;;;;;;;6.35;74.67;100380.69;6159984;28;20222;-75
2023/04/12 06:13:03;;;;;;;3.07;1.53;;;;;;;6.25;73.41;100388.66;6155374;28;20230;-75
2023/04/12 06:16:25;;;;;;;4.33;1.37;;;;;;;6.31;73.52;100382.84;6154410;28;20603;-73
2023/04/12 06:19:47;;;;;;;1.07;1.07;;;;;;;6.35;72.84;100371.03;6152688;28;20230;-74
2023/04/12 06:23:09;;;;;;;1.50;1.27;;;;;;;6.38;72.14;100370.75;6157118;28;20346;-73
2023/04/12 06:26:30;;;;;;;1.93;1.20;;;;;;;6.58;72.42;100363.50;6146868;28;20537;-74
2023/04/12 06:29:51;;;;;;;1.83;1.73;;;;;;;6.65;71.10;100358.47;6140641;28;20744;-74
2023/04/12 06:33:14;;;;;;;1.90;1.47;;;;;;;6.67;71.22;100353.88;6153737;28;20305;-74
2023/04/12 06:36:37;;;;;;;1.47;1.37;;;;;;;6.91;70.66;100361.88;6160070;28;20263;-73
2023/04/12 06:39:58;;;;;;;4.60;1.10;;;;;;;6.82;69.89;100368.06;6135797;28;20507;-73
2023/04/12 06:43:21;;;;;;;3.10;1.77;;;;;;;6.80;70.14;100360.34;6159255;28;20932;-74
2023/04/12 06:46:42;;;;;;;4.87;1.97;;;;;;;7.01;70.43;100356.50;6160338;28;20309;-74
2023/04/12 06:50:07;;;;;;;1.33;1.20;;;;;;;7.17;69.24;100341.66;6140475;28;20349;-73
2023/04/12 06:53:28;;;;;;;1.30;1.20;;;;;;;7.32;69.05;100331.38;6153214;28;20234;-74
2023/04/12 06:56:49;;;;;;;3.40;3.10;;;;;;;7.46;68.40;100329.91;6137572;28;20495;-74
2023/04/12 07:00:12;;;;;;;2.40;2.30;;;;;;;7.59;67.43;100325.03;6148774;28;20347;-74
2023/04/12 07:03:32;;;;;;;3.57;1.43;;;;;;;7.91;66.17;100318.97;6155124;28;20234;-74
2023/04/12 07:06:55;;;;;;;1.77;1.67;;;;;;;8.23;65.30;100320.78;6157029;28;20233;-75
2023/04/12 07:10:16;;;;;;;5.70;2.37;;;;;;;8.37;65.50;100309.59;6148025;28;20253;-74
2023/04/12 07:13:36;;;;;;;3.00;2.10;;;;;;;8.45;64.78;100300.88;6159015;28;20251;-73
2023/04/12 07:16:57;;;;;;;3.47;2.37;;;;;;;8.41;65.57;100300.41;6148038;28;20234;-74
2023/04/12 07:20:18;;;;;;;1.40;1.30;;;;;;;8.32;65.33;100292.66;6140394;28;20237;-74
2023/04/12 07:23:40;;;;;;;3.20;2.90;;;;;;;8.49;65.06;100287.22;6147933;28;20554;-74
2023/04/12 07:27:01;;;;;;;1.43;1.33;;;;;;;8.49;64.80;100289.88;6148278;28;20230;-74
2023/04/12 07:30:22;;;;;;;3.93;1.77;;;;;;;8.32;65.67;100285.63;6139933;28;20230;-74
2023/04/12 07:33:43;;;;;;;3.17;2.17;;;;;;;8.39;65.29;100283.97;6165378;28;20226;-74
2023/04/12 07:37:04;;;;;;;6.13;2.20;;;;;;;8.51;64.59;100281.81;6153870;28;20229;-75
2023/04/12 07:40:27;;;;;;;3.13;2.23;;;;;;;8.74;64.16;100261.66;6144325;28;20329;-74
2023/04/12 07:43:48;;;;;;;5.40;1.47;;;;;;;8.89;62.67;100269.66;6164611;28;20788;-74
2023/04/12 07:47:08;;;;;;;1.53;1.43;;;;;;;8.88;61.36;100271.47;6157517;28;20235;-75
2023/04/12 07:50:29;;;;;;;2.07;1.50;;;;;;;8.68;61.40;100270.22;6142782;28;20519;-73
2023/04/12 07:53:50;;;;;;;1.57;1.47;;;;;;;8.64;61.25;100268.94;6162134;28;20415;-73
2023/04/12 07:57:12;;;;;;;1.70;1.57;;;;;;;8.58;61.66;100253.84;6142421;28;20230;-75
2023/04/12 08:00:33;;;;;;;4.27;1.70;;;;;;;8.63;62.56;100258.56;6147985;28;20230;-75
2023/04/12 08:03:54;;;;;;;3.27;2.10;;;;;;;8.88;62.68;100249.59;6149969;28;21098;-73
2023/04/12 08:07:15;;;;;;;1.67;1.53;;;;;;;8.90;62.03;100239.72;6151317;28;20230;-74
2023/04/12 08:10:37;;;;;;;2.33;1.70;;;;;;;8.98;62.10;100238.84;6160898;28;20618;-74
2023/04/12 08:14:00;;;;;;;2.93;2.20;;;;;;;9.10;62.09;100219.84;6158241;28;20231;-74
2023/04/12 08:17:21;;;;;;;1.90;1.57;;;;;;;9.06;58.10;100213.28;6162615;28;20230;-74
2023/04/12 08:20:42;;;;;;;2.27;2.07;;;;;;;8.96;57.10;100215.34;6149825;28;20321;-74
2023/04/12 08:24:04;;;;;;;3.17;1.47;;;;;;;8.91;57.34;100205.31;6157916;28;20499;-72
2023/04/12 08:27:25;;;;;;;1.73;1.30;;;;;;;9.00;57.42;100195.59;6149444;28;20793;-75
2023/04/12 08:30:47;;;;;;;4.80;2.47;;;;;;;9.16;57.72;100192.84;6155319;28;20234;-74
2023/04/12 08:34:08;;;;;;;1.80;1.60;;;;;;;9.05;57.06;100187.13;6163793;28;20223;-74
2023/04/12 08:37:29;;;;;;;2.07;1.83;;;;;;;8.96;57.04;100182.94;6146538;28;21511;-75
2023/04/12 08:40:50;;;;;;;1.80;1.40;;;;;;;8.89;57.49;100175.72;6147574;28;21393;-73
2023/04/12 08:44:11;;;;;;;2.27;1.63;;;;;;;8.98;57.61;100167.78;6148443;28;20260;-75
2023/04/12 08:47:34;;;;;;;2.50;1.50;;;;;;;9.07;57.26;100156.19;6149059;28;20502;-74
2023/04/12 08:50:57;;;;;;;4.90;2.00;;;;;;;9.08;56.90;100144.66;6151560;28;20230;-75
2023/04/12 08:54:18;;;;;;;2.37;2.17;;;;;;;9.18;56.68;100134.72;6156302;28;20591;-72
2023/04/12 08:57:41;;;;;;;5.00;2.10;;;;;;;9.15;55.88;100106.94;6153696;28;20239;-75
2023/04/12 09:01:03;;;;;;;4.23;1.73;;;;;;;9.25;56.13;100112.78;6148080;28;20231;-73
2023/04/12 09:04:26;;;;;;;2.43;2.00;;;;;;;9.27;55.89;100116.03;6162738;28;20231;-73
2023/04/12 09:07:52;;;;;;;2.37;1.73;;;;;;;9.30;55.77;100108.78;6158332;28;20231;-72
2023/04/12 09:11:22;;;;;;;2.17;1.70;;;;;;;9.40;55.51;100104.09;6149608;28;20566;-73
2023/04/12 09:14:43;;;;;;;2.10;1.97;;;;;;;9.59;54.93;100100.94;6162431;28;20596;-74
2023/04/12 09:18:07;;;;;;;4.17;1.60;;;;;;;9.75;54.92;100087.59;6163670;28;20226;-73
2023/04/12 09:21:30;;;;;;;2.40;1.80;;;;;;;9.91;53.88;100078.69;6164695;28;20341;-75
2023/04/12 09:24:52;;;;;;;2.33;2.07;;;;;;;10.14;53.92;100078.59;6141993;28;20246;-74
2023/04/12 09:28:21;;;;;;;2.30;1.70;;;;;;;10.08;53.71;100068.75;6167865;28;20226;-74
2023/04/12 09:31:55;;;;;;;2.63;2.43;;;;;;;10.02;54.13;100059.75;6163667;28;20230;-74
2023/04/12 09:35:16;;;;;;;1.97;1.20;;;;;;;9.97;54.29;100059.50;6150950;28;20230;-73
2023/04/12 09:38:40;;;;;;;3.00;2.03;;;;;;;10.11;53.65;100036.75;6172701;28;20226;-73
2023/04/12 09:42:06;;;;;;;2.00;1.90;;;;;;;10.13;53.32;100025.03;6160151;28;20222;-75
2023/04/12 09:45:28;;;;;;;1.67;1.53;;;;;;;10.30;53.42;100019.53;6153287;28;20503;-73
2023/04/12 09:48:51;;;;;;;1.53;1.43;;;;;;;10.10;53.63;100017.47;6157799;28;20227;-74
2023/04/12 09:52:14;;;;;;;1.40;1.10;;;;;;;10.16;54.35;100015.94;6144898;28;20443;-74
2023/04/12 09:55:36;;;;;;;3.87;1.63;;;;;;;10.22;54.39;100005.47;6140565;28;20633;-73
2023/04/12 09:59:01;;;;;;;2.30;1.70;;;;;;;10.23;54.99;99993.09;6159074;28;20242;-74
2023/04/12 10:02:27;;;;;;;8.07;1.83;;;;;;;10.23;54.71;99999.19;6159684;28;20299;-74
2023/04/12 10:05:48;;;;;;;3.57;1.63;;;;;;;10.12;55.09;99988.28;6140661;28;20608;-73
2023/04/12 10:09:10;;;;;;;1.93;1.30;;;;;;;10.28;55.01;99988.91;6145193;28;20514;-72
2023/04/12 10:12:33;;;;;;;2.33;2.00;;;;;;;10.44;54.74;99987.00;6158329;28;20357;-74
2023/04/12 10:15:55;;;;;;;2.67;1.80;;;;;;;10.43;54.33;99983.56;6153809;28;20226;-74
2023/04/12 10:19:17;;;;;;;5.03;2.60;;;;;;;10.43;54.88;99975.63;6152068;28;20223;-73
2023/04/12 10:22:40;;;;;;;1.83;1.33;;;;;;;10.42;54.38;99966.09;6161957;28;20226;-73
2023/04/12 10:26:05;;;;;;;1.80;1.57;;;;;;;10.55;54.68;99974.16;6159042;28;20249;-73
2023/04/12 10:29:32;;;;;;;2.47;1.50;;;;;;;10.60;54.47;99979.69;6147413;28;21828;-72
2023/04/12 10:33:13;;;;;;;2.20;2.00;;;;;;;10.58;54.19;99965.03;6156900;28;20564;-74
2023/04/12 10:36:54;;;;;;;1.67;1.30;;;;;;;10.56;54.77;99962.59;6148213;28;20316;-74
2023/04/12 10:40:17;;;;;;;2.77;2.53;;;;;;;10.62;54.83;99953.88;6142328;28;20234;-74
2023/04/12 10:43:39;;;;;;;1.93;1.83;;;;;;;10.73;54.95;99957.03;6167632;28;20230;-73
2023/04/12 10:47:01;;;;;;;2.37;1.73;;;;;;;10.67;54.81;99955.13;6148154;28;20687;-74
2023/04/12 10:50:24;;;;;;;3.10;1.87;;;;;;;10.62;55.74;99950.44;6148607;28;20227;-73
2023/04/12 10:53:45;;;;;;;4.60;1.90;;;;;;;10.55;57.11;99955.66;6144379;28;20640;-74
2023/04/12 10:57:48;;;;;;;2.40;1.30;;;;;;;10.48;58.54;99949.50;6157431;28;20226;-74
2023/04/12 11:01:10;;;;;;;2.03;1.50;;;;;;;10.28;59.78;99961.69;6141310;28;20233;-74
2023/04/12 11:04:33;;;;;;;4.60;2.63;;;;;;;10.20;62.23;99952.09;6145788;28;20238;-73
2023/04/12 11:08:00;;;;;;;4.60;2.57;;;;;;;10.08;63.33;99960.66;6168420;28;20560;-73
2023/04/12 11:12:12;;;;;;;3.33;3.13;;;;;;;9.88;64.72;99963.91;6117230;28;20825;-73
2023/04/12 11:15:33;;;;;;;10.73;2.67;;;;;;;9.76;66.03;99972.44;6128257;28;20301;-73
2023/04/12 11:18:54;;;;;;;5.63;2.63;;;;;;;9.80;67.32;99971.91;6137369;28;20231;-73
2023/04/12 11:22:19;;;;;;;3.53;2.00;;;;;;;9.48;69.63;99980.22;6136300;28;20243;-73
2023/04/12 11:25:40;;;;;;;6.50;2.60;;;;;;;9.39;71.13;99984.75;6151877;28;20233;-72
2023/04/12 11:29:07;;;;;;;2.60;2.40;;;;;;;9.31;73.10;99968.22;6160346;28;20238;-72
2023/04/12 11:32:30;;;;;;;4.47;2.80;;;;;;;9.19;73.96;99976.59;6167857;28;20234;-73
2023/04/12 11:35:51;;;;;;;6.67;2.47;;;;;;;9.18;74.79;99971.50;6155860;28;25597;-73
2023/04/12 11:39:14;;;;;;;6.83;3.50;;;;;;;9.00;77.73;99971.03;6138160;28;20234;-72
2023/04/12 11:42:35;;;;;;;6.10;4.80;;;;;;;8.94;77.22;99977.81;6150295;28;20353;-73
2023/04/12 11:45:58;;;;;;;7.63;5.50;;;;;;;8.94;78.85;99964.66;6170981;28;20257;-73
2023/04/12 11:49:20;;;;;;;6.57;3.70;;;;;;;8.93;79.21;99968.28;6155861;28;20230;-73
2023/04/12 11:52:41;;;;;;;6.20;4.27;;;;;;;8.99;79.46;99961.50;6146745;28;20250;-73
2023/04/12 11:56:03;;;;;;;5.70;4.53;;;;;;;9.03;80.72;99955.69;6154340;28;20230;-73
2023/04/12 11:59:31;;;;;;;4.73;2.83;;;;;;;9.09;80.56;99959.41;6160277;28;20225;-73
2023/04/12 12:02:52;;;;;;;4.20;3.90;;;;;;;9.00;80.51;99963.94;6129876;28;20242;-73
2023/04/12 12:06:14;;;;;;;4.30;3.17;;;;;;;8.93;81.75;99962.19;6152999;28;20746;-73
2023/04/12 12:09:35;;;;;;;5.50;3.47;;;;;;;8.99;82.65;99956.22;6164788;28;20250;-73
2023/04/12 12:13:00;;;;;;;9.73;3.67;;;;;;;9.04;83.03;99946.78;6158728;28;20244;-73
2023/04/12 12:16:25;;;;;;;5.07;4.57;;;;;;;9.06;84.19;99944.78;6145181;28;20306;-74
2023/04/12 12:19:47;;;;;;;5.30;4.77;;;;;;;8.95;85.08;99939.97;6162475;28;20239;-73
2023/04/12 12:23:08;;;;;;;10.93;5.40;;;;;;;8.98;85.70;99944.06;6155582;28;20234;-74
2023/04/12 12:26:29;;;;;;;9.20;5.43;;;;;;;9.09;85.63;99947.06;6145110;28;20333;-74
2023/04/12 12:29:53;;;;;;;10.37;5.27;;;;;;;8.81;87.46;99936.31;6133179;28;20246;-73
2023/04/12 12:33:19;;;;;;;19.53;5.23;;;;;;;9.00;86.90;99934.19;6164839;28;20230;-73
2023/04/12 12:36:40;;;;;;;3.60;3.17;;;;;;;9.05;87.65;99929.97;6157508;28;20233;-72
2023/04/12 12:40:06;;;;;;;5.60;2.77;;;;;;;9.27;86.61;99923.81;6143351;28;20239;-73
2023/04/12 12:43:27;;;;;;;3.47;2.00;;;;;;;9.04;88.00;99911.75;6158044;28;20231;-73
2023/04/12 12:46:49;;;;;;;2.60;1.60;;;;;;;9.14;87.27;99923.63;6140377;28;22830;-73
2023/04/12 12:50:13;;;;;;;3.13;2.87;;;;;;;8.95;86.91;99908.41;6144679;28;20313;-73
2023/04/12 12:53:34;;;;;;;6.00;2.83;;;;;;;8.74;88.98;99908.28;6159392;28;20234;-73
2023/04/12 12:56:56;;;;;;;4.80;3.07;;;;;;;8.89;89.49;99904.66;6155716;28;20234;-73
2023/04/12 13:00:18;;;;;;;1.90;1.80;;;;;;;8.85;89.44;99892.03;6139985;28;22506;-73
2023/04/12 13:03:40;;;;;;;4.07;1.70;;;;;;;9.20;88.77;99875.53;6163423;28;20241;-74
2023/04/12 13:07:01;;;;;;;3.03;1.83;;;;;;;9.38;87.97;99876.94;6146826;28;20549;-74
2023/04/12 13:10:25;;;;;;;2.77;2.17;;;;;;;9.56;86.43;99869.47;6151729;28;20254;-73
2023/04/12 13:13:46;;;;;;;5.33;2.07;;;;;;;9.64;86.29;99861.47;6168042;28;20230;-74
2023/04/12 13:17:06;;;;;;;5.73;2.37;;;;;;;9.62;86.24;99852.91;6157544;28;20230;-73
2023/04/12 13:20:28;;;;;;;2.23;1.90;;;;;;;9.48;86.37;99851.16;6140177;28;20234;-73
2023/04/12 13:23:50;;;;;;;7.80;2.10;;;;;;;9.49;86.51;99843.03;6166936;28;20230;-74
2023/04/12 13:27:11;;;;;;;2.83;2.00;;;;;;;9.26;88.16;99842.41;6162150;28;20247;-74
2023/04/12 13:30:32;;;;;;;2.47;2.27;;;;;;;9.27;88.32;99850.06;6146266;28;20245;-73
2023/04/12 13:33:53;;;;;;;1.70;1.60;;;;;;;9.29;87.79;99830.66;6148177;28;20247;-73
2023/04/12 13:37:15;;;;;;;3.20;1.47;;;;;;;9.38;87.48;99830.38;6152606;28;20235;-74
2023/04/12 13:40:36;;;;;;;1.77;1.67;;;;;;;9.12;87.80;99827.41;6156532;28;20226;-74
2023/04/12 13:43:57;;;;;;;1.90;1.40;;;;;;;9.33;87.43;99816.13;6158220;28;20234;-74
2023/04/12 13:47:17;;;;;;;1.87;1.77;;;;;;;9.21;87.60;99819.25;6146900;28;20239;-74
2023/04/12 13:50:38;;;;;;;2.63;1.50;;;;;;;9.13;88.23;99816.69;6137710;28;20390;-73
2023/04/12 13:54:01;;;;;;;1.87;1.20;;;;;;;9.12;88.33;99822.16;6150872;28;20247;-75
2023/04/12 13:57:21;;;;;;;1.57;1.47;;;;;;;9.19;88.36;99818.59;6147938;28;20223;-73
2023/04/12 14:00:42;;;;;;;1.80;1.70;;;;;;;9.17;88.78;99811.88;6139997;28;20261;-74
2023/04/12 14:04:03;;;;;;;1.40;1.30;;;;;;;9.10;89.14;99816.25;6166629;28;20234;-74
2023/04/12 14:07:25;;;;;;;1.57;1.47;;;;;;;9.21;89.66;99807.88;6153513;28;20247;-73
2023/04/12 14:10:47;;;;;;;1.90;1.80;;;;;;;9.31;89.18;99805.75;6133543;28;20242;-74
2023/04/12 14:14:08;;;;;;;1.80;1.70;;;;;;;9.14;89.94;99801.72;6165133;28;20234;-73
2023/04/12 14:17:31;;;;;;;1.53;1.40;;;;;;;9.21;90.33;99798.19;6147892;28;20231;-73
2023/04/12 14:20:53;;;;;;;2.23;1.63;;;;;;;9.07;91.14;99800.81;6152930;28;20343;-73
2023/04/12 14:24:14;;;;;;;1.63;1.53;;;;;;;8.93;92.34;99801.66;6161704;28;20230;-73
2023/04/12 14:27:37;;;;;;;1.57;1.43;;;;;;;8.99;93.01;99803.56;6163196;28;20227;-73
2023/04/12 14:30:59;;;;;;;1.97;1.80;;;;;;;9.04;93.00;99798.56;6147352;28;20515;-75
2023/04/12 14:34:19;;;;;;;3.63;2.67;;;;;;;9.04;93.62;99791.47;6163141;28;20317;-74
2023/04/12 14:37:40;;;;;;;5.80;2.03;;;;;;;9.02;93.90;99790.06;6155210;28;20245;-74
2023/04/12 14:41:01;;;;;;;2.13;1.90;;;;;;;9.00;94.50;99787.59;6135479;28;20223;-75
2023/04/12 14:44:23;;;;;;;3.77;1.87;;;;;;;9.05;95.04;99781.75;6155959;28;20321;-74
2023/04/12 14:47:44;;;;;;;3.40;2.63;;;;;;;9.11;94.63;99784.47;6158520;28;20235;-74
2023/04/12 14:51:05;;;;;;;3.00;2.50;;;;;;;9.15;94.99;99782.28;6150026;28;20317;-74
2023/04/12 14:54:26;;;;;;;3.17;2.67;;;;;;;9.13;94.95;99787.75;6148906;28;21201;-74
2023/04/12 14:57:46;;;;;;;7.03;4.17;;;;;;;9.20;95.43;99777.31;6151317;28;20226;-74
2023/04/12 15:01:12;;;;;;;3.17;2.53;;;;;;;9.32;94.58;99777.63;6118862;28;20234;-73
2023/04/12 15:04:33;;;;;;;2.47;2.27;;;;;;;9.04;95.52;99774.84;6158304;28;20612;-73
2023/04/12 15:07:54;;;;;;;3.83;3.23;;;;;;;9.16;95.99;99765.50;6164205;28;20234;-73
2023/04/12 15:11:18;;;;;;;2.03;1.83;;;;;;;9.13;96.56;99765.88;6159443;28;20222;-74
2023/04/12 15:14:39;;;;;;;3.60;3.30;;;;;;;9.08;96.04;99761.16;6160339;28;20219;-74
2023/04/12 15:18:02;;;;;;;6.57;4.80;;;;;;;9.20;96.16;99758.88;6159731;28;20321;-73
2023/04/12 15:21:23;;;;;;;6.57;5.33;;;;;;;9.12;96.39;99756.34;6150670;28;20242;-73
2023/04/12 15:24:44;;;;;;;6.67;5.00;;;;;;;9.09;96.86;99754.88;6145552;28;20242;-74
2023/04/12 15:28:05;;;;;;;3.40;3.10;;;;;;;9.19;96.43;99752.78;6156904;28;20647;-75
2023/04/12 15:31:27;;;;;;;4.07;3.57;;;;;;;9.23;96.47;99756.69;6162335;28;22292;-75
2023/04/12 15:34:50;;;;;;;2.83;2.63;;;;;;;9.25;95.60;99752.06;6151556;28;20500;-74
2023/04/12 15:38:11;;;;;;;1.70;1.60;;;;;;;9.24;95.99;99744.34;6156365;28;20230;-75
2023/04/12 15:41:35;;;;;;;1.90;1.60;;;;;;;9.37;94.65;99747.09;6158443;28;20233;-74
2023/04/12 15:44:57;;;;;;;1.70;1.60;;;;;;;9.15;95.12;99754.16;6153965;28;20575;-74
2023/04/12 15:48:17;;;;;;;1.53;1.43;;;;;;;9.15;95.34;99742.81;6167397;28;20223;-75
2023/04/12 15:51:40;;;;;;;1.57;1.47;;;;;;;9.17;95.47;99744.25;6143737;28;20681;-74
2023/04/12 15:55:01;;;;;;;2.87;2.37;;;;;;;9.15;96.01;99741.00;6144176;28;20226;-75
2023/04/12 15:58:22;;;;;;;3.30;1.47;;;;;;;9.20;95.74;99738.63;6150550;28;20608;-74
2023/04/12 16:01:43;;;;;;;4.30;2.57;;;;;;;9.22;95.62;99741.88;6135159;28;20507;-75